Time,TemperatureF,DewpointF,PressureIn,WindDirection,WindDirectionDegrees,WindSpeedMPH,WindSpeedGustMPH,Humidity,HourlyPrecipIn,Conditions,Clouds,dailyrainin,SoftwareType,DateUTC
2013-03-24 00:00:00,32.7,24.4,29.97,WSW,246,0.0,0.0,71,0.00,,---,0.00,VWS V14.01,2013-03-24 04:00:00,
2013-03-24 00:05:00,33.2,23.8,29.96,NNW,346,0.0,3.0,68,0.00,,---,0.00,VWS V14.01,2013-03-24 04:05:00,
2013-03-24 00:10:00,34.9,24.0,29.96,ENE,69,3.0,3.0,64,0.00,,---,0.00,VWS V14.01,2013-03-24 04:10:00,
2013-03-24 00:15:00,37.5,24.5,29.97,ENE,78,0.0,3.0,59,0.00,,---,0.00,VWS V14.01,2013-03-24 04:15:00,
2013-03-24 00:20:00,39.8,23.2,29.97,NNE,25,3.0,3.0,51,0.00,,---,0.00,VWS V14.01,2013-03-24 04:20:00,
2013-03-24 00:25:00,40.8,23.1,29.96,ENE,72,3.0,4.0,49,0.00,,---,0.00,VWS V14.01,2013-03-24 04:25:00,
2013-03-24 00:30:00,41.6,22.9,29.97,ENE,75,5.0,7.0,47,0.00,,---,0.00,VWS V14.01,2013-03-24 04:30:00,
2013-03-24 00:35:00,42.3,22.5,29.96,ENE,75,7.0,7.0,45,0.00,,---,0.00,VWS V14.01,2013-03-24 04:35:00,
2013-03-24 00:40:00,42.9,22.0,29.95,ENE,70,3.0,3.0,43,0.00,,---,0.00,VWS V14.01,2013-03-24 04:40:00,
2013-03-24 00:41:00,42.9,22.0,29.95,ENE,70,3.0,3.0,43,0.00,,---,0.00,VWS V14.01,2013-03-24 04:41:00,
2013-03-24 00:46:00,43.0,22.6,29.95,ENE,67,5.0,8.0,44,0.00,,---,0.00,VWS V14.01,2013-03-24 04:46:00,
2013-03-24 00:50:00,42.9,22.0,29.95,ENE,58,4.0,8.0,43,0.00,,---,0.00,VWS V14.01,2013-03-24 04:50:00,
2013-03-24 00:51:00,42.9,22.5,29.95,ENE,74,1.0,5.0,44,0.00,,---,0.00,VWS V14.01,2013-03-24 04:51:00,
2013-03-24 00:57:00,43.0,22.0,29.94,East,82,7.0,7.0,43,0.00,,---,0.00,VWS V14.01,2013-03-24 04:57:00,
2013-03-24 01:00:00,42.9,22.5,29.94,ENE,70,2.0,9.0,44,0.00,,---,0.00,VWS V14.01,2013-03-24 05:00:00,
2013-03-24 01:02:00,42.7,22.3,29.94,ENE,65,7.0,8.0,44,0.00,,---,0.00,VWS V14.01,2013-03-24 05:02:00,
2013-03-24 01:07:00,42.8,22.4,29.95,ENE,78,1.0,9.0,44,0.00,,---,0.00,VWS V14.01,2013-03-24 05:07:00,
2013-03-24 01:10:00,42.7,22.3,29.95,ESE,112,4.0,9.0,44,0.00,,---,0.00,VWS V14.01,2013-03-24 05:10:00,
2013-03-24 01:12:00,42.4,22.6,29.96,ESE,102,1.0,7.0,45,0.00,,---,0.00,VWS V14.01,2013-03-24 05:12:00,
2013-03-24 01:17:00,41.7,22.5,29.97,SE,126,0.0,7.0,46,0.00,,---,0.00,VWS V14.01,2013-03-24 05:17:00,
2013-03-24 01:20:00,41.2,22.5,29.97,ESE,121,2.0,7.0,47,0.00,,---,0.00,VWS V14.01,2013-03-24 05:20:00,
2013-03-24 01:22:00,40.7,22.5,29.97,ESE,112,1.0,4.0,48,0.00,,---,0.00,VWS V14.01,2013-03-24 05:22:00,
2013-03-24 01:27:00,39.9,22.8,29.98,East,82,1.0,4.0,50,0.00,,---,0.00,VWS V14.01,2013-03-24 05:27:00,
2013-03-24 01:30:00,39.2,23.5,29.98,North,6,2.0,4.0,53,0.00,,---,0.00,VWS V14.01,2013-03-24 05:30:00,
2013-03-24 01:32:00,38.7,22.1,29.97,NNE,23,4.0,7.0,51,0.00,,---,0.00,VWS V14.01,2013-03-24 05:32:00,
2013-03-24 01:40:00,40.5,22.9,29.97,East,80,3.0,3.0,49,0.00,,---,0.00,VWS V14.01,2013-03-24 05:40:00,
2013-03-24 01:41:00,40.5,22.9,29.97,East,80,3.0,3.0,49,0.00,,---,0.00,VWS V14.01,2013-03-24 05:41:00,
2013-03-24 01:46:00,40.8,23.1,29.97,ENE,58,1.0,6.0,49,0.00,,---,0.00,VWS V14.01,2013-03-24 05:46:00,
2013-03-24 01:50:00,40.8,22.6,29.97,NE,41,4.0,8.0,48,0.00,,---,0.00,VWS V14.01,2013-03-24 05:50:00,
2013-03-24 01:51:00,40.8,22.6,29.95,NE,55,3.0,9.0,48,0.00,,---,0.00,VWS V14.01,2013-03-24 05:51:00,
2013-03-24 01:57:00,40.9,22.2,29.94,ENE,60,4.0,9.0,47,0.00,,---,0.00,VWS V14.01,2013-03-24 05:57:00,
2013-03-24 02:00:00,40.8,22.6,29.94,East,86,3.0,9.0,48,0.00,,---,0.00,VWS V14.01,2013-03-24 06:00:00,
2013-03-24 02:02:00,40.7,22.5,29.94,ENE,60,2.0,10.0,48,0.00,,---,0.00,VWS V14.01,2013-03-24 06:02:00,
2013-03-24 02:09:00,40.4,22.3,29.94,NE,47,6.0,6.0,48,0.00,,---,0.00,VWS V14.01,2013-03-24 06:09:00,
2013-03-24 02:10:00,40.4,22.3,29.94,NE,47,6.0,6.0,48,0.00,,---,0.00,VWS V14.01,2013-03-24 06:10:00,
2013-03-24 02:14:00,39.9,22.8,29.95,ENE,74,4.0,11.0,50,0.00,,---,0.00,VWS V14.01,2013-03-24 06:14:00,
2013-03-24 02:20:00,39.5,22.9,29.95,ENE,69,3.0,11.0,51,0.00,,---,0.00,VWS V14.01,2013-03-24 06:20:00,
2013-03-24 02:22:00,39.3,22.7,29.96,ENE,67,5.0,7.0,51,0.00,,---,0.00,VWS V14.01,2013-03-24 06:22:00,
2013-03-24 02:27:00,39.1,23.0,29.95,NE,43,5.0,14.0,52,0.00,,---,0.00,VWS V14.01,2013-03-24 06:27:00,
2013-03-24 02:30:00,38.9,22.8,29.95,East,95,2.0,14.0,52,0.00,,---,0.00,VWS V14.01,2013-03-24 06:30:00,
2013-03-24 02:32:00,38.8,23.1,29.95,ENE,70,5.0,11.0,53,0.00,,---,0.00,VWS V14.01,2013-03-24 06:32:00,
2013-03-24 02:37:00,38.5,22.9,29.95,ENE,78,2.0,11.0,53,0.00,,---,0.00,VWS V14.01,2013-03-24 06:37:00,
2013-03-24 02:40:00,38.3,23.1,29.95,NE,45,3.0,11.0,54,0.00,,---,0.00,VWS V14.01,2013-03-24 06:40:00,
2013-03-24 02:42:00,38.2,23.0,29.96,NE,46,4.0,7.0,54,0.00,,---,0.00,VWS V14.01,2013-03-24 06:42:00,
2013-03-24 02:47:00,38.1,22.9,29.96,ENE,60,3.0,8.0,54,0.00,,---,0.00,VWS V14.01,2013-03-24 06:47:00,
2013-03-24 02:50:00,38.1,23.4,29.96,ENE,64,1.0,8.0,55,0.00,,---,0.00,VWS V14.01,2013-03-24 06:50:00,
2013-03-24 02:52:00,38.0,22.9,29.97,North,356,0.0,5.0,54,0.00,,---,0.00,VWS V14.01,2013-03-24 06:52:00,
2013-03-24 02:57:00,37.8,23.1,29.97,NE,53,3.0,5.0,55,0.00,,---,0.00,VWS V14.01,2013-03-24 06:57:00,
2013-03-24 03:00:00,37.7,23.0,29.97,NNE,15,0.0,5.0,55,0.00,,---,0.00,VWS V14.01,2013-03-24 07:00:00,
2013-03-24 03:02:00,37.5,22.8,29.97,ENE,67,0.0,6.0,55,0.00,,---,0.00,VWS V14.01,2013-03-24 07:02:00,
2013-03-24 03:07:00,37.3,23.1,29.97,NE,53,2.0,6.0,56,0.00,,---,0.00,VWS V14.01,2013-03-24 07:07:00,
2013-03-24 03:10:00,37.2,23.4,29.98,North,356,1.0,6.0,57,0.00,,---,0.00,VWS V14.01,2013-03-24 07:10:00,
2013-03-24 03:12:00,36.9,23.1,29.98,NE,50,0.0,1.0,57,0.00,,---,0.00,VWS V14.01,2013-03-24 07:12:00,
2013-03-24 03:17:00,36.6,23.2,29.98,East,79,2.0,4.0,58,0.00,,---,0.00,VWS V14.01,2013-03-24 07:17:00,
2013-03-24 03:20:00,36.5,23.1,29.98,NE,46,0.0,4.0,58,0.00,,---,0.00,VWS V14.01,2013-03-24 07:20:00,
2013-03-24 03:22:00,36.5,23.1,29.98,NE,56,0.0,3.0,58,0.00,,---,0.00,VWS V14.01,2013-03-24 07:22:00,
2013-03-24 03:27:00,36.1,23.2,29.98,NE,34,1.0,3.0,59,0.00,,---,0.00,VWS V14.01,2013-03-24 07:27:00,
2013-03-24 03:30:00,35.9,23.0,29.98,NE,56,0.0,3.0,59,0.00,,---,0.00,VWS V14.01,2013-03-24 07:30:00,
2013-03-24 03:32:00,35.9,23.0,29.98,ENE,57,0.0,1.0,59,0.00,,---,0.00,VWS V14.01,2013-03-24 07:32:00,
2013-03-24 03:39:00,36.1,23.6,29.98,NNE,19,1.0,4.0,60,0.00,,---,0.00,VWS V14.01,2013-03-24 07:39:00,
2013-03-24 03:40:00,36.1,23.6,29.98,NNE,19,1.0,4.0,60,0.00,,---,0.00,VWS V14.01,2013-03-24 07:40:00,
2013-03-24 03:44:00,36.0,23.1,29.98,NE,49,2.0,4.0,59,0.00,,---,0.00,VWS V14.01,2013-03-24 07:44:00,
2013-03-24 03:49:00,35.9,23.4,29.98,NE,43,2.0,4.0,60,0.00,,---,0.00,VWS V14.01,2013-03-24 07:49:00,
2013-03-24 03:50:00,35.9,23.4,29.98,NE,43,2.0,4.0,60,0.00,,---,0.00,VWS V14.01,2013-03-24 07:50:00,
2013-03-24 03:54:00,35.6,23.5,29.99,NNE,25,1.0,4.0,61,0.00,,---,0.00,VWS V14.01,2013-03-24 07:54:00,
2013-03-24 03:59:00,35.6,23.5,29.99,NNE,31,1.0,1.0,61,0.00,,---,0.00,VWS V14.01,2013-03-24 07:59:00,
2013-03-24 04:00:00,35.6,23.5,29.99,NNE,31,1.0,5.0,61,0.00,,---,0.00,VWS V14.01,2013-03-24 08:00:00,
2013-03-24 04:04:00,35.8,23.3,29.99,NE,34,2.0,4.0,60,0.00,,---,0.00,VWS V14.01,2013-03-24 08:04:00,
2013-03-24 04:09:00,36.0,23.5,29.99,ENE,61,4.0,6.0,60,0.00,,---,0.00,VWS V14.01,2013-03-24 08:09:00,
2013-03-24 04:10:00,36.0,23.5,29.99,ENE,61,4.0,6.0,60,0.00,,---,0.00,VWS V14.01,2013-03-24 08:10:00,
2013-03-24 04:14:00,36.3,24.1,30.00,ENE,71,2.0,5.0,61,0.00,,---,0.00,VWS V14.01,2013-03-24 08:14:00,
2013-03-24 04:19:00,36.1,24.0,30.00,ENE,78,1.0,5.0,61,0.00,,---,0.00,VWS V14.01,2013-03-24 08:19:00,
2013-03-24 04:20:00,36.1,24.0,30.00,ENE,78,1.0,5.0,61,0.00,,---,0.00,VWS V14.01,2013-03-24 08:20:00,
2013-03-24 04:24:00,35.9,23.4,30.00,ENE,70,2.0,4.0,60,0.00,,---,0.00,VWS V14.01,2013-03-24 08:24:00,
2013-03-24 04:29:00,35.9,23.8,29.99,ENE,67,0.0,4.0,61,0.00,,---,0.00,VWS V14.01,2013-03-24 08:29:00,
2013-03-24 04:30:00,35.9,23.8,29.99,ENE,67,0.0,4.0,61,0.00,,---,0.00,VWS V14.01,2013-03-24 08:30:00,
2013-03-24 04:34:00,36.1,23.6,29.99,ENE,73,1.0,5.0,60,0.00,,---,0.00,VWS V14.01,2013-03-24 08:34:00,
2013-03-24 04:39:00,36.0,23.9,29.99,East,84,0.0,5.0,61,0.00,,---,0.00,VWS V14.01,2013-03-24 08:39:00,
2013-03-24 04:40:00,36.0,23.9,29.99,East,84,0.0,5.0,61,0.00,,---,0.00,VWS V14.01,2013-03-24 08:40:00,
2013-03-24 04:44:00,35.8,23.3,29.99,NE,49,1.0,3.0,60,0.00,,---,0.00,VWS V14.01,2013-03-24 08:44:00,
2013-03-24 04:49:00,35.8,23.7,29.98,NE,53,1.0,1.0,61,0.00,,---,0.00,VWS V14.01,2013-03-24 08:49:00,
2013-03-24 04:50:00,35.8,23.7,29.98,NE,53,1.0,3.0,61,0.00,,---,0.00,VWS V14.01,2013-03-24 08:50:00,
2013-03-24 04:54:00,35.9,23.4,29.97,NE,34,1.0,5.0,60,0.00,,---,0.00,VWS V14.01,2013-03-24 08:54:00,
2013-03-24 04:59:00,35.6,23.1,29.97,NNE,29,0.0,0.0,60,0.00,,---,0.00,VWS V14.01,2013-03-24 08:59:00,
2013-03-24 05:00:00,35.6,23.1,29.97,NNE,29,0.0,5.0,60,0.00,,---,0.00,VWS V14.01,2013-03-24 09:00:00,
2013-03-24 05:04:00,35.5,23.4,29.97,NNE,13,2.0,4.0,61,0.00,,---,0.00,VWS V14.01,2013-03-24 09:04:00,
2013-03-24 05:09:00,35.1,23.4,29.96,NE,39,0.0,0.0,62,0.00,,---,0.00,VWS V14.01,2013-03-24 09:09:00,
2013-03-24 05:10:00,35.1,23.4,29.96,NE,39,0.0,4.0,62,0.00,,---,0.00,VWS V14.01,2013-03-24 09:10:00,
2013-03-24 05:14:00,34.7,23.4,29.97,NNE,22,0.0,4.0,63,0.00,,---,0.00,VWS V14.01,2013-03-24 09:14:00,
2013-03-24 05:19:00,34.3,23.4,29.96,North,5,0.0,0.0,64,0.00,,---,0.00,VWS V14.01,2013-03-24 09:19:00,
2013-03-24 05:20:00,34.3,23.4,29.96,North,5,0.0,4.0,64,0.00,,---,0.00,VWS V14.01,2013-03-24 09:20:00,
2013-03-24 05:24:00,33.9,23.4,29.96,North,5,0.0,0.0,65,0.00,,---,0.00,VWS V14.01,2013-03-24 09:24:00,
2013-03-24 05:29:00,33.6,23.8,29.96,NNE,15,1.0,1.0,67,0.00,,---,0.00,VWS V14.01,2013-03-24 09:29:00,
2013-03-24 05:30:00,33.7,23.6,29.96,North,8,0.0,1.0,66,0.00,,---,0.00,VWS V14.01,2013-03-24 09:30:00,
2013-03-24 05:34:00,33.6,23.1,29.96,North,6,0.0,2.0,65,0.00,,---,0.00,VWS V14.01,2013-03-24 09:34:00,
2013-03-24 05:39:00,33.3,23.2,29.96,NNE,32,0.0,0.0,66,0.00,,---,0.00,VWS V14.01,2013-03-24 09:39:00,
2013-03-24 05:40:00,33.3,23.2,29.96,NNE,33,0.0,2.0,66,0.00,,---,0.00,VWS V14.01,2013-03-24 09:40:00,
2013-03-24 05:44:00,33.2,22.7,29.96,NE,36,0.0,2.0,65,0.00,,---,0.00,VWS V14.01,2013-03-24 09:44:00,
2013-03-24 05:49:00,33.1,22.6,29.97,SSE,156,0.0,0.0,65,0.00,,---,0.00,VWS V14.01,2013-03-24 09:49:00,
2013-03-24 05:50:00,33.2,22.7,29.97,SSE,156,0.0,2.0,65,0.00,,---,0.00,VWS V14.01,2013-03-24 09:50:00,
2013-03-24 05:54:00,32.9,23.2,29.97,SSE,156,0.0,0.0,67,0.00,,---,0.00,VWS V14.01,2013-03-24 09:54:00,
2013-03-24 05:59:00,32.6,22.9,29.97,SSE,158,0.0,0.0,67,0.00,,---,0.00,VWS V14.01,2013-03-24 09:59:00,
2013-03-24 06:00:00,32.6,22.9,29.97,SSE,158,0.0,0.0,67,0.00,,---,0.00,VWS V14.01,2013-03-24 10:00:00,
2013-03-24 06:04:00,32.3,23.6,29.97,SSE,158,0.0,0.0,70,0.00,,---,0.00,VWS V14.01,2013-03-24 10:04:00,
2013-03-24 06:09:00,32.0,23.3,29.97,SSE,158,0.0,0.0,70,0.00,,---,0.00,VWS V14.01,2013-03-24 10:09:00,
2013-03-24 06:10:00,32.0,23.3,29.97,SSE,158,0.0,0.0,70,0.00,,---,0.00,VWS V14.01,2013-03-24 10:10:00,
2013-03-24 06:15:00,31.6,23.0,29.96,SSE,158,0.0,1.0,70,0.00,,---,0.00,VWS V14.01,2013-03-24 10:15:00,
2013-03-24 06:20:00,31.4,23.8,29.96,SSE,158,0.0,0.0,73,0.00,,---,0.00,VWS V14.01,2013-03-24 10:20:00,
2013-03-24 06:25:00,31.2,23.9,29.96,SSE,158,0.0,0.0,74,0.00,,---,0.00,VWS V14.01,2013-03-24 10:25:00,
2013-03-24 06:30:00,31.0,24.0,29.96,SW,221,0.0,0.0,75,0.00,,---,0.00,VWS V14.01,2013-03-24 10:30:00,
2013-03-24 06:35:00,30.9,23.9,29.96,SW,221,0.0,0.0,75,0.00,,---,0.00,VWS V14.01,2013-03-24 10:35:00,
2013-03-24 06:40:00,30.8,24.5,29.96,SW,221,0.0,0.0,77,0.00,,---,0.00,VWS V14.01,2013-03-24 10:40:00,
2013-03-24 06:45:00,30.6,24.3,29.97,SW,221,0.0,0.0,77,0.00,,---,0.00,VWS V14.01,2013-03-24 10:45:00,
2013-03-24 06:50:00,30.7,24.4,29.97,SW,221,0.0,0.0,77,0.00,,---,0.00,VWS V14.01,2013-03-24 10:50:00,
2013-03-24 06:55:00,30.7,24.7,29.96,SW,221,0.0,0.0,78,0.00,,---,0.00,VWS V14.01,2013-03-24 10:55:00,
2013-03-24 07:00:00,30.8,23.8,29.96,WNW,301,0.0,0.0,75,0.00,,---,0.00,VWS V14.01,2013-03-24 11:00:00,
2013-03-24 07:05:00,30.9,23.6,29.95,WSW,257,0.0,1.0,74,0.00,,---,0.00,VWS V14.01,2013-03-24 11:05:00,
2013-03-24 07:10:00,30.9,23.9,29.95,NNE,27,0.0,0.0,75,0.00,,---,0.00,VWS V14.01,2013-03-24 11:10:00,
2013-03-24 07:15:00,31.1,23.5,29.95,ENE,61,0.0,1.0,73,0.00,,---,0.00,VWS V14.01,2013-03-24 11:15:00,
2013-03-24 07:20:00,31.4,24.4,29.96,ENE,61,0.0,0.0,75,0.00,,---,0.00,VWS V14.01,2013-03-24 11:20:00,
2013-03-24 07:25:00,31.4,23.8,29.96,ENE,61,0.0,0.0,73,0.00,,---,0.00,VWS V14.01,2013-03-24 11:25:00,
2013-03-24 07:30:00,31.4,25.0,29.96,SSE,157,1.0,1.0,77,0.00,,---,0.00,VWS V14.01,2013-03-24 11:30:00,
2013-03-24 07:35:00,31.4,24.4,29.96,South,174,0.0,1.0,75,0.00,,---,0.00,VWS V14.01,2013-03-24 11:35:00,
2013-03-24 07:40:00,31.5,25.1,29.96,South,174,0.0,0.0,77,0.00,,---,0.00,VWS V14.01,2013-03-24 11:40:00,
2013-03-24 07:45:00,31.6,25.5,29.94,NE,39,0.0,2.0,78,0.00,,---,0.00,VWS V14.01,2013-03-24 11:45:00,
2013-03-24 07:50:00,32.0,24.0,29.95,East,81,0.0,1.0,72,0.00,,---,0.00,VWS V14.01,2013-03-24 11:50:00,
2013-03-24 07:55:00,32.6,23.6,29.95,WSW,239,0.0,2.0,69,0.00,,---,0.00,VWS V14.01,2013-03-24 11:55:00,
2013-03-24 08:00:00,33.0,24.6,29.94,North,1,0.0,0.0,71,0.00,,---,0.00,VWS V14.01,2013-03-24 12:00:00,
2013-03-24 08:06:00,33.2,24.8,29.95,East,85,0.0,0.0,71,0.00,,---,0.00,VWS V14.01,2013-03-24 12:06:00,
2013-03-24 08:10:00,33.1,26.0,29.95,SSE,167,0.0,0.0,75,0.00,,---,0.00,VWS V14.01,2013-03-24 12:10:00,
2013-03-24 08:12:00,33.0,26.3,29.95,SSE,166,0.0,0.0,76,0.00,,---,0.00,VWS V14.01,2013-03-24 12:12:00,
2013-03-24 08:17:00,32.8,24.8,29.94,SSE,166,0.0,0.0,72,0.00,,---,0.00,VWS V14.01,2013-03-24 12:17:00,
2013-03-24 08:20:00,32.9,24.9,29.94,SSE,166,0.0,0.0,72,0.00,,---,0.00,VWS V14.01,2013-03-24 12:20:00,
2013-03-24 08:22:00,33.1,25.7,29.94,SSE,167,0.0,0.0,74,0.00,,---,0.00,VWS V14.01,2013-03-24 12:22:00,
2013-03-24 08:27:00,33.2,25.8,29.93,SW,218,0.0,1.0,74,0.00,,---,0.00,VWS V14.01,2013-03-24 12:27:00,
2013-03-24 08:30:00,33.2,25.8,29.93,SW,218,0.0,1.0,74,0.00,,---,0.00,VWS V14.01,2013-03-24 12:30:00,
2013-03-24 08:32:00,33.3,25.9,29.93,ENE,72,2.0,2.0,74,0.00,,---,0.00,VWS V14.01,2013-03-24 12:32:00,
2013-03-24 08:37:00,33.8,23.7,29.92,ENE,78,0.0,3.0,66,0.00,,---,0.00,VWS V14.01,2013-03-24 12:37:00,
2013-03-24 08:40:00,34.1,23.2,29.92,ENE,61,2.0,3.0,64,0.00,,---,0.00,VWS V14.01,2013-03-24 12:40:00,
2013-03-24 08:42:00,34.4,23.9,29.92,ENE,67,0.0,2.0,65,0.00,,---,0.00,VWS V14.01,2013-03-24 12:42:00,
2013-03-24 08:47:00,34.8,25.0,29.92,East,86,1.0,2.0,67,0.00,,---,0.00,VWS V14.01,2013-03-24 12:47:00,
2013-03-24 08:50:00,34.9,24.3,29.92,East,86,1.0,2.0,65,0.00,,---,0.00,VWS V14.01,2013-03-24 12:50:00,
2013-03-24 08:52:00,35.1,23.8,29.92,NE,47,2.0,3.0,63,0.00,,---,0.00,VWS V14.01,2013-03-24 12:52:00,
2013-03-24 08:57:00,35.3,23.2,29.92,ESE,102,0.0,5.0,61,0.00,,---,0.00,VWS V14.01,2013-03-24 12:57:00,
2013-03-24 09:00:00,35.4,23.3,29.92,ENE,65,0.0,5.0,61,0.00,,---,0.00,VWS V14.01,2013-03-24 13:00:00,
2013-03-24 09:02:00,35.5,23.4,29.93,ESE,102,0.0,2.0,61,0.00,,---,0.00,VWS V14.01,2013-03-24 13:02:00,
2013-03-24 09:07:00,35.7,23.2,29.92,East,87,3.0,5.0,60,0.00,,---,0.00,VWS V14.01,2013-03-24 13:07:00,
2013-03-24 09:10:00,35.7,24.0,29.92,East,79,1.0,5.0,62,0.00,,---,0.00,VWS V14.01,2013-03-24 13:10:00,
2013-03-24 09:12:00,35.7,23.2,29.92,East,84,6.0,6.0,60,0.00,,---,0.00,VWS V14.01,2013-03-24 13:12:00,
2013-03-24 09:17:00,35.8,23.3,29.92,ENE,57,7.0,9.0,60,0.00,,---,0.00,VWS V14.01,2013-03-24 13:17:00,
2013-03-24 09:20:00,35.8,23.3,29.92,NNE,27,3.0,9.0,60,0.00,,---,0.00,VWS V14.01,2013-03-24 13:20:00,
2013-03-24 09:22:00,35.9,23.0,29.92,East,82,3.0,8.0,59,0.00,,---,0.00,VWS V14.01,2013-03-24 13:22:00,
2013-03-24 09:27:00,36.0,23.1,29.92,NE,43,4.0,8.0,59,0.00,,---,0.00,VWS V14.01,2013-03-24 13:27:00,
2013-03-24 09:30:00,36.0,23.1,29.92,ENE,58,1.0,8.0,59,0.00,,---,0.00,VWS V14.01,2013-03-24 13:30:00,
2013-03-24 09:32:00,36.1,23.2,29.92,North,353,4.0,6.0,59,0.00,,---,0.00,VWS V14.01,2013-03-24 13:32:00,
2013-03-24 09:37:00,36.1,23.6,29.92,NE,45,2.0,6.0,60,0.00,,---,0.00,VWS V14.01,2013-03-24 13:37:00,
2013-03-24 09:40:00,36.2,23.7,29.92,NE,41,3.0,7.0,60,0.00,,---,0.00,VWS V14.01,2013-03-24 13:40:00,
2013-03-24 09:42:00,36.3,23.4,29.91,ENE,59,1.0,4.0,59,0.00,,---,0.00,VWS V14.01,2013-03-24 13:42:00,
2013-03-24 09:47:00,36.3,23.8,29.91,ENE,59,3.0,7.0,60,0.00,,---,0.00,VWS V14.01,2013-03-24 13:47:00,
2013-03-24 09:50:00,36.4,23.9,29.91,NE,55,3.0,7.0,60,0.00,,---,0.00,VWS V14.01,2013-03-24 13:50:00,
2013-03-24 09:52:00,36.5,23.5,29.91,ENE,74,3.0,4.0,59,0.00,,---,0.00,VWS V14.01,2013-03-24 13:52:00,
2013-03-24 09:58:00,36.6,24.4,29.90,East,79,3.0,6.0,61,0.00,,---,0.00,VWS V14.01,2013-03-24 13:58:00,
2013-03-24 10:00:00,36.7,23.7,29.90,ENE,71,4.0,8.0,59,0.00,,---,0.00,VWS V14.01,2013-03-24 14:00:00,
2013-03-24 10:03:00,36.8,23.8,29.90,ENE,72,3.0,8.0,59,0.00,,---,0.00,VWS V14.01,2013-03-24 14:03:00,
2013-03-24 10:08:00,36.8,23.8,29.89,NNE,22,4.0,10.0,59,0.00,,---,0.00,VWS V14.01,2013-03-24 14:08:00,
2013-03-24 10:10:00,36.8,23.0,29.89,NE,39,4.0,10.0,57,0.00,,---,0.00,VWS V14.01,2013-03-24 14:10:00,
2013-03-24 10:13:00,36.9,23.1,29.90,East,81,5.0,9.0,57,0.00,,---,0.00,VWS V14.01,2013-03-24 14:13:00,
2013-03-24 10:18:00,37.0,23.2,29.90,NE,49,2.0,10.0,57,0.00,,---,0.00,VWS V14.01,2013-03-24 14:18:00,
2013-03-24 10:20:00,37.0,23.2,29.90,ENE,63,2.0,10.0,57,0.00,,---,0.00,VWS V14.01,2013-03-24 14:20:00,
2013-03-24 10:23:00,37.2,23.8,29.90,ENE,67,4.0,10.0,58,0.00,,---,0.00,VWS V14.01,2013-03-24 14:23:00,
2013-03-24 10:28:00,37.3,23.1,29.89,ENE,63,4.0,10.0,56,0.00,,---,0.00,VWS V14.01,2013-03-24 14:28:00,
2013-03-24 10:30:00,37.4,23.6,29.89,East,92,4.0,10.0,57,0.00,,---,0.00,VWS V14.01,2013-03-24 14:30:00,
2013-03-24 10:33:00,37.5,23.2,29.90,NE,43,3.0,9.0,56,0.00,,---,0.00,VWS V14.01,2013-03-24 14:33:00,
2013-03-24 10:38:00,37.5,23.7,29.89,ENE,73,8.0,9.0,57,0.00,,---,0.00,VWS V14.01,2013-03-24 14:38:00,
2013-03-24 10:40:00,37.5,23.2,29.89,ENE,58,8.0,11.0,56,0.00,,---,0.00,VWS V14.01,2013-03-24 14:40:00,
2013-03-24 10:43:00,37.4,22.7,29.89,NE,39,2.0,11.0,55,0.00,,---,0.00,VWS V14.01,2013-03-24 14:43:00,
2013-03-24 10:48:00,37.4,22.3,29.89,ENE,74,3.0,11.0,54,0.00,,---,0.00,VWS V14.01,2013-03-24 14:48:00,
2013-03-24 10:50:00,37.4,22.3,29.89,ENE,64,6.0,11.0,54,0.00,,---,0.00,VWS V14.01,2013-03-24 14:50:00,
2013-03-24 10:53:00,37.5,22.4,29.89,ENE,72,5.0,7.0,54,0.00,,---,0.00,VWS V14.01,2013-03-24 14:53:00,
2013-03-24 10:58:00,37.5,22.8,29.89,NE,36,6.0,8.0,55,0.00,,---,0.00,VWS V14.01,2013-03-24 14:58:00,
2013-03-24 11:00:00,37.5,22.4,29.89,ENE,70,2.0,8.0,54,0.00,,---,0.00,VWS V14.01,2013-03-24 15:00:00,
2013-03-24 11:03:00,37.7,23.0,29.89,NNW,342,1.0,6.0,55,0.00,,---,0.00,VWS V14.01,2013-03-24 15:03:00,
2013-03-24 11:08:00,37.8,22.2,29.89,NE,51,2.0,7.0,53,0.00,,---,0.00,VWS V14.01,2013-03-24 15:08:00,
2013-03-24 11:10:00,37.8,22.2,29.89,NE,53,4.0,7.0,53,0.00,,---,0.00,VWS V14.01,2013-03-24 15:10:00,
2013-03-24 11:13:00,37.9,22.3,29.89,NE,42,4.0,6.0,53,0.00,,---,0.00,VWS V14.01,2013-03-24 15:13:00,
2013-03-24 11:18:00,38.0,23.3,29.89,East,84,3.0,7.0,55,0.00,,---,0.00,VWS V14.01,2013-03-24 15:18:00,
2013-03-24 11:20:00,38.0,23.7,29.89,ENE,71,1.0,7.0,56,0.00,,---,0.00,VWS V14.01,2013-03-24 15:20:00,
2013-03-24 11:23:00,38.1,22.9,29.89,East,79,2.0,6.0,54,0.00,,---,0.00,VWS V14.01,2013-03-24 15:23:00,
2013-03-24 11:28:00,38.0,22.9,29.89,ESE,104,5.0,8.0,54,0.00,,---,0.00,VWS V14.01,2013-03-24 15:28:00,
2013-03-24 11:30:00,38.0,22.9,29.88,East,82,2.0,8.0,54,0.00,,---,0.00,VWS V14.01,2013-03-24 15:30:00,
2013-03-24 11:33:00,38.0,23.7,29.88,ESE,106,2.0,6.0,56,0.00,,---,0.00,VWS V14.01,2013-03-24 15:33:00,
2013-03-24 11:38:00,38.2,23.5,29.88,East,82,3.0,6.0,55,0.00,,---,0.00,VWS V14.01,2013-03-24 15:38:00,
2013-03-24 11:40:00,38.2,23.0,29.88,ENE,72,0.0,6.0,54,0.00,,---,0.00,VWS V14.01,2013-03-24 15:40:00,
2013-03-24 11:43:00,38.3,23.1,29.88,East,98,1.0,4.0,54,0.00,,---,0.00,VWS V14.01,2013-03-24 15:43:00,
2013-03-24 11:48:00,38.4,22.8,29.87,East,82,2.0,5.0,53,0.00,,---,0.00,VWS V14.01,2013-03-24 15:48:00,
2013-03-24 11:50:00,38.4,23.7,29.87,ESE,118,3.0,5.0,55,0.00,,---,0.00,VWS V14.01,2013-03-24 15:50:00,
2013-03-24 11:53:00,38.4,22.8,29.86,ESE,103,7.0,7.0,53,0.00,,---,0.00,VWS V14.01,2013-03-24 15:53:00,
2013-03-24 11:58:00,38.5,23.3,29.86,NE,43,3.0,8.0,54,0.00,,---,0.00,VWS V14.01,2013-03-24 15:58:00,
2013-03-24 12:00:00,38.5,23.3,29.86,ENE,74,1.0,8.0,54,0.00,,---,0.00,VWS V14.01,2013-03-24 16:00:00,
2013-03-24 12:03:00,38.5,22.9,29.86,East,79,2.0,8.0,53,0.00,,---,0.00,VWS V14.01,2013-03-24 16:03:00,
2013-03-24 12:08:00,38.5,23.3,29.86,ESE,104,5.0,8.0,54,0.00,,---,0.00,VWS V14.01,2013-03-24 16:08:00,
2013-03-24 12:10:00,38.5,22.9,29.86,East,86,3.0,8.0,53,0.00,,---,0.00,VWS V14.01,2013-03-24 16:10:00,
2013-03-24 12:13:00,38.4,22.3,29.85,NE,53,5.0,6.0,52,0.00,,---,0.00,VWS V14.01,2013-03-24 16:13:00,
2013-03-24 12:19:00,38.4,21.9,29.85,NE,35,4.0,6.0,51,0.00,,---,0.00,VWS V14.01,2013-03-24 16:19:00,
2013-03-24 12:20:00,38.4,22.3,29.84,NE,34,4.0,6.0,52,0.00,,---,0.00,VWS V14.01,2013-03-24 16:20:00,
2013-03-24 12:24:00,38.4,22.3,29.84,ESE,106,4.0,9.0,52,0.00,,---,0.00,VWS V14.01,2013-03-24 16:24:00,
2013-03-24 12:29:00,38.6,22.0,29.83,NNE,27,6.0,11.0,51,0.00,,---,0.00,VWS V14.01,2013-03-24 16:29:00,
2013-03-24 12:30:00,38.6,22.5,29.83,NE,44,3.0,11.0,52,0.00,,---,0.00,VWS V14.01,2013-03-24 16:30:00,
2013-03-24 12:34:00,38.7,22.6,29.83,NE,50,3.0,8.0,52,0.00,,---,0.00,VWS V14.01,2013-03-24 16:34:00,
2013-03-24 12:39:00,38.7,22.1,29.82,NNE,20,3.0,10.0,51,0.00,,---,0.00,VWS V14.01,2013-03-24 16:39:00,
2013-03-24 12:40:00,38.7,22.1,29.82,NNE,18,1.0,10.0,51,0.00,,---,0.00,VWS V14.01,2013-03-24 16:40:00,
2013-03-24 12:44:00,38.9,22.8,29.82,NNW,340,3.0,6.0,52,0.00,,---,0.00,VWS V14.01,2013-03-24 16:44:00,
2013-03-24 12:49:00,39.2,23.1,29.82,East,79,7.0,8.0,52,0.00,,---,0.00,VWS V14.01,2013-03-24 16:49:00,
2013-03-24 12:50:00,39.2,22.6,29.81,ENE,77,5.0,9.0,51,0.00,,---,0.00,VWS V14.01,2013-03-24 16:50:00,
2013-03-24 12:54:00,39.3,23.2,29.82,ENE,61,3.0,6.0,52,0.00,,---,0.00,VWS V14.01,2013-03-24 16:54:00,
2013-03-24 12:59:00,39.4,22.3,29.82,ENE,68,1.0,6.0,50,0.00,,---,0.00,VWS V14.01,2013-03-24 16:59:00,
2013-03-24 13:00:00,39.5,22.9,29.82,East,79,6.0,6.0,51,0.00,,---,0.00,VWS V14.01,2013-03-24 17:00:00,
2013-03-24 13:04:00,39.4,22.8,29.81,NE,53,3.0,6.0,51,0.00,,---,0.00,VWS V14.01,2013-03-24 17:04:00,
2013-03-24 13:09:00,39.6,23.4,29.81,NE,35,4.0,6.0,52,0.00,,---,0.00,VWS V14.01,2013-03-24 17:09:00,
2013-03-24 13:10:00,39.6,23.0,29.81,NNE,23,9.0,9.0,51,0.00,,---,0.00,VWS V14.01,2013-03-24 17:10:00,
2013-03-24 13:14:00,39.5,23.4,29.80,East,96,2.0,11.0,52,0.00,,---,0.00,VWS V14.01,2013-03-24 17:14:00,
2013-03-24 13:19:00,39.4,22.8,29.80,WNW,295,1.0,11.0,51,0.00,,---,0.00,VWS V14.01,2013-03-24 17:19:00,
2013-03-24 13:20:00,39.4,22.8,29.80,WNW,301,1.0,11.0,51,0.00,,---,0.00,VWS V14.01,2013-03-24 17:20:00,
2013-03-24 13:24:00,39.6,23.0,29.79,ENE,58,2.0,6.0,51,0.00,,---,0.00,VWS V14.01,2013-03-24 17:24:00,
2013-03-24 13:29:00,39.9,23.7,29.79,ENE,78,5.0,6.0,52,0.00,,---,0.00,VWS V14.01,2013-03-24 17:29:00,
2013-03-24 13:30:00,40.0,23.8,29.79,ENE,62,2.0,6.0,52,0.00,,---,0.00,VWS V14.01,2013-03-24 17:30:00,
2013-03-24 13:34:00,40.1,23.0,29.78,ENE,57,1.0,6.0,50,0.00,,---,0.00,VWS V14.01,2013-03-24 17:34:00,
2013-03-24 13:39:00,39.9,22.8,29.77,NE,50,4.0,8.0,50,0.00,,---,0.00,VWS V14.01,2013-03-24 17:39:00,
2013-03-24 13:40:00,39.9,22.8,29.77,ENE,65,6.0,8.0,50,0.00,,---,0.00,VWS V14.01,2013-03-24 17:40:00,
2013-03-24 13:44:00,39.6,23.0,29.77,NE,56,5.0,8.0,51,0.00,,---,0.00,VWS V14.01,2013-03-24 17:44:00,
2013-03-24 13:49:00,39.4,23.2,29.76,ENE,75,5.0,8.0,52,0.00,,---,0.00,VWS V14.01,2013-03-24 17:49:00,
2013-03-24 13:50:00,39.4,23.2,29.76,ENE,77,7.0,8.0,52,0.00,,---,0.00,VWS V14.01,2013-03-24 17:50:00,
2013-03-24 13:54:00,39.4,22.8,29.76,NE,53,5.0,9.0,51,0.00,,---,0.00,VWS V14.01,2013-03-24 17:54:00,
2013-03-24 13:59:00,39.5,22.9,29.75,NNE,25,2.0,9.0,51,0.00,,---,0.00,VWS V14.01,2013-03-24 17:59:00,
2013-03-24 14:00:00,39.5,22.9,29.75,ENE,66,2.0,9.0,51,0.00,,---,0.00,VWS V14.01,2013-03-24 18:00:00,
2013-03-24 14:04:00,39.6,22.5,29.75,NNE,15,1.0,5.0,50,0.00,,---,0.00,VWS V14.01,2013-03-24 18:04:00,
2013-03-24 14:09:00,39.6,23.0,29.75,NE,39,5.0,9.0,51,0.00,,---,0.00,VWS V14.01,2013-03-24 18:09:00,
2013-03-24 14:10:00,39.6,23.0,29.75,ENE,61,5.0,9.0,51,0.00,,---,0.00,VWS V14.01,2013-03-24 18:10:00,
2013-03-24 14:14:00,39.5,22.4,29.74,NE,41,1.0,11.0,50,0.00,,---,0.00,VWS V14.01,2013-03-24 18:14:00,
2013-03-24 14:19:00,39.4,22.8,29.74,NE,41,2.0,11.0,51,0.00,,---,0.00,VWS V14.01,2013-03-24 18:19:00,
2013-03-24 14:20:00,39.4,22.8,29.74,NE,37,3.0,11.0,51,0.00,,---,0.00,VWS V14.01,2013-03-24 18:20:00,
2013-03-24 14:24:00,39.4,22.8,29.74,ENE,68,7.0,10.0,51,0.00,,---,0.00,VWS V14.01,2013-03-24 18:24:00,
2013-03-24 14:29:00,39.3,22.7,29.74,NNE,15,6.0,10.0,51,0.00,,---,0.00,VWS V14.01,2013-03-24 18:29:00,
2013-03-24 14:30:00,39.3,22.7,29.74,ENE,63,6.0,10.0,51,0.00,,---,0.00,VWS V14.01,2013-03-24 18:30:00,
2013-03-24 14:34:00,39.2,23.1,29.74,East,79,3.0,7.0,52,0.00,,---,0.00,VWS V14.01,2013-03-24 18:34:00,
2013-03-24 14:39:00,39.2,22.6,29.73,SE,131,1.0,7.0,51,0.00,,---,0.00,VWS V14.01,2013-03-24 18:39:00,
2013-03-24 14:40:00,39.3,22.7,29.73,SE,131,0.0,7.0,51,0.00,,---,0.00,VWS V14.01,2013-03-24 18:40:00,
2013-03-24 14:44:00,39.1,22.5,29.74,East,100,2.0,7.0,51,0.00,,---,0.00,VWS V14.01,2013-03-24 18:44:00,
2013-03-24 14:49:00,39.1,23.0,29.73,NNE,25,2.0,7.0,52,0.00,,---,0.00,VWS V14.01,2013-03-24 18:49:00,
2013-03-24 14:50:00,39.1,22.5,29.73,NNE,25,1.0,7.0,51,0.00,,---,0.00,VWS V14.01,2013-03-24 18:50:00,
2013-03-24 14:54:00,39.1,22.5,29.73,NE,35,1.0,4.0,51,0.00,,---,0.00,VWS V14.01,2013-03-24 18:54:00,
2013-03-24 14:59:00,38.8,23.1,29.73,NNE,17,1.0,10.0,53,0.00,,---,0.00,VWS V14.01,2013-03-24 18:59:00,
2013-03-24 15:00:00,38.7,26.4,29.73,NNW,327,2.0,10.0,61,0.00,,---,0.00,VWS V14.01,2013-03-24 19:00:00,
2013-03-24 15:04:00,37.4,26.7,29.72,East,92,3.0,8.0,65,0.00,,---,0.00,VWS V14.01,2013-03-24 19:04:00,
2013-03-24 15:09:00,36.8,27.6,29.72,NNE,29,0.0,8.0,69,0.00,,---,0.00,VWS V14.01,2013-03-24 19:09:00,
2013-03-24 15:10:00,36.8,27.6,29.72,NNE,25,4.0,8.0,69,0.00,,---,0.00,VWS V14.01,2013-03-24 19:10:00,
2013-03-24 15:14:00,36.7,27.1,29.72,ENE,61,2.0,4.0,68,0.00,,---,0.00,VWS V14.01,2013-03-24 19:14:00,
2013-03-24 15:19:00,36.7,27.1,29.73,North,4,1.0,4.0,68,0.00,,---,0.00,VWS V14.01,2013-03-24 19:19:00,
2013-03-24 15:20:00,36.7,27.1,29.72,NNE,20,2.0,4.0,68,0.00,,---,0.00,VWS V14.01,2013-03-24 19:20:00,
2013-03-24 15:24:00,36.5,27.3,29.72,ENE,71,2.0,4.0,69,0.00,,---,0.00,VWS V14.01,2013-03-24 19:24:00,
2013-03-24 15:29:00,36.2,28.7,29.71,ENE,69,4.0,7.0,74,0.00,,---,0.00,VWS V14.01,2013-03-24 19:29:00,
2013-03-24 15:30:00,36.1,28.6,29.71,ENE,70,4.0,7.0,74,0.00,,---,0.00,VWS V14.01,2013-03-24 19:30:00,
2013-03-24 15:34:00,35.3,29.1,29.72,NE,39,2.0,4.0,78,0.00,,---,0.00,VWS V14.01,2013-03-24 19:34:00,
2013-03-24 15:39:00,34.7,28.9,29.72,NNE,25,0.0,4.0,79,0.00,,---,0.00,VWS V14.01,2013-03-24 19:39:00,
2013-03-24 15:40:00,34.7,28.9,29.72,NNE,25,0.0,4.0,79,0.00,,---,0.00,VWS V14.01,2013-03-24 19:40:00,
2013-03-24 15:44:00,34.4,29.5,29.72,NE,43,0.0,2.0,82,0.00,,---,0.00,VWS V14.01,2013-03-24 19:44:00,
2013-03-24 15:49:00,34.2,29.6,29.72,NE,43,0.0,2.0,83,0.00,,---,0.00,VWS V14.01,2013-03-24 19:49:00,
2013-03-24 15:50:00,34.2,29.6,29.72,NE,43,0.0,2.0,83,0.00,,---,0.00,VWS V14.01,2013-03-24 19:50:00,
2013-03-24 15:54:00,34.0,29.7,29.73,WNW,295,0.0,1.0,84,0.00,,---,0.00,VWS V14.01,2013-03-24 19:54:00,
2013-03-24 15:59:00,33.7,30.0,29.73,WNW,288,1.0,2.0,86,0.00,,---,0.00,VWS V14.01,2013-03-24 19:59:00,
2013-03-24 16:00:00,33.7,30.0,29.73,WNW,288,1.0,2.0,86,0.00,,---,0.00,VWS V14.01,2013-03-24 20:00:00,
2013-03-24 16:04:00,33.5,30.0,29.72,NNW,340,2.0,3.0,87,0.00,,---,0.00,VWS V14.01,2013-03-24 20:04:00,
2013-03-24 16:09:00,33.2,30.3,29.72,WNW,288,0.0,3.0,89,0.00,,---,0.00,VWS V14.01,2013-03-24 20:09:00,
2013-03-24 16:10:00,33.2,30.3,29.72,WNW,288,0.0,3.0,89,0.00,,---,0.00,VWS V14.01,2013-03-24 20:10:00,
2013-03-24 16:14:00,33.0,30.4,29.73,NW,309,0.0,2.0,90,0.00,,---,0.00,VWS V14.01,2013-03-24 20:14:00,
2013-03-24 16:19:00,32.9,30.6,29.73,NW,308,0.0,2.0,91,0.00,,---,0.00,VWS V14.01,2013-03-24 20:19:00,
2013-03-24 16:20:00,32.9,30.6,29.73,NW,308,0.0,2.0,91,0.00,,---,0.00,VWS V14.01,2013-03-24 20:20:00,
2013-03-24 16:24:00,32.8,30.7,29.74,NW,308,1.0,2.0,92,0.00,,---,0.00,VWS V14.01,2013-03-24 20:24:00,
2013-03-24 16:29:00,32.7,30.6,29.74,WNW,300,0.0,2.0,92,0.00,,---,0.00,VWS V14.01,2013-03-24 20:29:00,
2013-03-24 16:30:00,32.7,30.6,29.74,WNW,300,0.0,2.0,92,0.00,,---,0.00,VWS V14.01,2013-03-24 20:30:00,
2013-03-24 16:34:00,32.7,30.6,29.74,West,281,0.0,2.0,92,0.00,,---,0.00,VWS V14.01,2013-03-24 20:34:00,
2013-03-24 16:39:00,32.6,30.8,29.75,WNW,283,0.0,2.0,93,0.00,,---,0.00,VWS V14.01,2013-03-24 20:39:00,
2013-03-24 16:40:00,32.6,30.8,29.75,WNW,283,0.0,2.0,93,0.00,,---,0.00,VWS V14.01,2013-03-24 20:40:00,
2013-03-24 16:44:00,32.6,30.8,29.74,WNW,285,0.0,1.0,93,0.00,,---,0.00,VWS V14.01,2013-03-24 20:44:00,
2013-03-24 16:49:00,32.6,30.8,29.74,WNW,285,0.0,1.0,93,0.00,,---,0.00,VWS V14.01,2013-03-24 20:49:00,
2013-03-24 16:50:00,32.6,30.8,29.74,WNW,285,0.0,1.0,93,0.00,,---,0.00,VWS V14.01,2013-03-24 20:50:00,
2013-03-24 16:54:00,32.6,30.8,29.73,WNW,285,0.0,0.0,93,0.00,,---,0.00,VWS V14.01,2013-03-24 20:54:00,
2013-03-24 16:59:00,32.6,30.8,29.73,NW,322,0.0,1.0,93,0.00,,---,0.00,VWS V14.01,2013-03-24 20:59:00,
2013-03-24 17:00:00,32.6,30.8,29.73,NW,322,0.0,1.0,93,0.00,,---,0.00,VWS V14.01,2013-03-24 21:00:00,
2013-03-24 17:04:00,32.6,30.8,29.74,NW,322,0.0,0.0,93,0.00,,---,0.00,VWS V14.01,2013-03-24 21:04:00,
2013-03-24 17:09:00,32.6,31.1,29.73,NW,322,0.0,0.0,94,0.00,,---,0.00,VWS V14.01,2013-03-24 21:09:00,
2013-03-24 17:10:00,32.6,31.1,29.73,NW,322,0.0,0.0,94,0.00,,---,0.00,VWS V14.01,2013-03-24 21:10:00,
2013-03-24 17:14:00,32.6,31.1,29.73,NW,322,0.0,0.0,94,0.00,,---,0.00,VWS V14.01,2013-03-24 21:14:00,
2013-03-24 17:19:00,32.6,31.1,29.73,NW,322,0.0,0.0,94,0.00,,---,0.00,VWS V14.01,2013-03-24 21:19:00,
2013-03-24 17:20:00,32.6,31.1,29.73,NW,322,0.0,0.0,94,0.00,,---,0.00,VWS V14.01,2013-03-24 21:20:00,
2013-03-24 17:24:00,32.6,31.1,29.73,North,360,0.0,0.0,94,0.00,,---,0.00,VWS V14.01,2013-03-24 21:24:00,
2013-03-24 17:29:00,32.6,31.1,29.72,SSE,148,0.0,0.0,94,0.00,,---,0.00,VWS V14.01,2013-03-24 21:29:00,
2013-03-24 17:30:00,32.6,31.1,29.72,SSE,148,0.0,0.0,94,0.00,,---,0.00,VWS V14.01,2013-03-24 21:30:00,
2013-03-24 17:34:00,32.6,31.1,29.72,SSE,148,0.0,0.0,94,0.00,,---,0.00,VWS V14.01,2013-03-24 21:34:00,
2013-03-24 17:39:00,32.6,31.1,29.72,ENE,65,0.0,0.0,94,0.00,,---,0.00,VWS V14.01,2013-03-24 21:39:00,
2013-03-24 17:40:00,32.6,31.1,29.72,ENE,65,0.0,0.0,94,0.00,,---,0.00,VWS V14.01,2013-03-24 21:40:00,
2013-03-24 17:44:00,32.6,31.1,29.73,ENE,65,0.0,0.0,94,0.00,,---,0.00,VWS V14.01,2013-03-24 21:44:00,
2013-03-24 17:50:00,32.6,31.1,29.72,ENE,65,0.0,0.0,94,0.00,,---,0.00,VWS V14.01,2013-03-24 21:50:00,
2013-03-24 17:55:00,32.7,31.2,29.72,ENE,63,0.0,0.0,94,0.00,,---,0.00,VWS V14.01,2013-03-24 21:55:00,
2013-03-24 18:00:00,32.8,31.3,29.72,ENE,64,0.0,0.0,94,0.00,,---,0.00,VWS V14.01,2013-03-24 22:00:00,
2013-03-24 18:05:00,32.7,31.2,29.71,East,84,0.0,0.0,94,0.00,,---,0.00,VWS V14.01,2013-03-24 22:05:00,
2013-03-24 18:10:00,32.6,31.1,29.71,ENE,67,0.0,0.0,94,0.00,,---,0.00,VWS V14.01,2013-03-24 22:10:00,
2013-03-24 18:15:00,32.5,31.0,29.70,ENE,63,0.0,0.0,94,0.00,,---,0.00,VWS V14.01,2013-03-24 22:15:00,
2013-03-24 18:20:00,32.5,31.0,29.71,NE,54,0.0,0.0,94,0.00,,---,0.00,VWS V14.01,2013-03-24 22:20:00,
2013-03-24 18:25:00,32.5,31.2,29.71,NNE,29,0.0,0.0,95,0.00,,---,0.00,VWS V14.01,2013-03-24 22:25:00,
2013-03-24 18:30:00,32.4,30.9,29.70,ENE,68,0.0,0.0,94,0.00,,---,0.00,VWS V14.01,2013-03-24 22:30:00,
2013-03-24 18:35:00,32.5,31.2,29.71,ENE,67,0.0,0.0,95,0.00,,---,0.00,VWS V14.01,2013-03-24 22:35:00,
2013-03-24 18:40:00,32.5,31.2,29.71,ESE,104,0.0,0.0,95,0.00,,---,0.00,VWS V14.01,2013-03-24 22:40:00,
2013-03-24 18:45:00,32.5,31.2,29.71,ENE,68,0.0,0.0,95,0.00,,---,0.00,VWS V14.01,2013-03-24 22:45:00,
2013-03-24 18:50:00,32.4,31.1,29.70,ENE,66,0.0,0.0,95,0.00,,---,0.00,VWS V14.01,2013-03-24 22:50:00,
2013-03-24 18:55:00,32.4,31.1,29.69,ENE,75,0.0,0.0,95,0.00,,---,0.00,VWS V14.01,2013-03-24 22:55:00,
2013-03-24 19:00:00,32.4,31.1,29.70,NE,43,0.0,0.0,95,0.00,,---,0.00,VWS V14.01,2013-03-24 23:00:00,
2013-03-24 19:05:00,32.3,31.0,29.70,NNE,23,0.0,0.0,95,0.00,,---,0.00,VWS V14.01,2013-03-24 23:05:00,
2013-03-24 19:10:00,32.3,31.0,29.70,East,87,0.0,0.0,95,0.00,,---,0.00,VWS V14.01,2013-03-24 23:10:00,
2013-03-24 19:15:00,32.3,31.0,29.70,NNE,30,0.0,0.0,95,0.00,,---,0.00,VWS V14.01,2013-03-24 23:15:00,
2013-03-24 19:20:00,32.3,31.0,29.70,ENE,73,0.0,0.0,95,0.00,,---,0.00,VWS V14.01,2013-03-24 23:20:00,
2013-03-24 19:25:00,32.3,31.0,29.70,NNE,13,0.0,0.0,95,0.00,,---,0.00,VWS V14.01,2013-03-24 23:25:00,
2013-03-24 19:30:00,32.2,30.9,29.70,ENE,63,0.0,0.0,95,0.00,,---,0.00,VWS V14.01,2013-03-24 23:30:00,
2013-03-24 19:35:00,32.2,30.9,29.70,NE,54,0.0,0.0,95,0.00,,---,0.00,VWS V14.01,2013-03-24 23:35:00,
2013-03-24 19:40:00,32.2,30.9,29.69,ENE,75,0.0,0.0,95,0.00,,---,0.00,VWS V14.01,2013-03-24 23:40:00,
2013-03-24 19:45:00,32.2,30.9,29.69,ENE,68,0.0,0.0,95,0.00,,---,0.00,VWS V14.01,2013-03-24 23:45:00,
2013-03-24 19:50:00,32.2,30.9,29.69,NE,43,0.0,0.0,95,0.00,,---,0.00,VWS V14.01,2013-03-24 23:50:00,
2013-03-24 19:55:00,32.1,30.8,29.69,East,79,0.0,0.0,95,0.00,,---,0.00,VWS V14.01,2013-03-24 23:55:00,
2013-03-24 20:00:00,32.1,30.8,29.68,NE,44,0.0,0.0,95,0.00,,---,0.00,VWS V14.01,2013-03-25 00:00:00,
2013-03-24 20:05:00,32.1,30.8,29.68,ENE,63,0.0,0.0,95,0.00,,---,0.00,VWS V14.01,2013-03-25 00:05:00,
2013-03-24 20:10:00,32.1,30.8,29.68,ENE,67,0.0,0.0,95,0.00,,---,0.00,VWS V14.01,2013-03-25 00:10:00,
2013-03-24 20:15:00,32.0,30.7,29.67,ENE,75,0.0,0.0,95,0.00,,---,0.00,VWS V14.01,2013-03-25 00:15:00,
2013-03-24 20:20:00,32.0,30.7,29.67,ENE,68,0.0,0.0,95,0.00,,---,0.00,VWS V14.01,2013-03-25 00:20:00,
2013-03-24 20:25:00,32.0,30.7,29.67,NE,34,0.0,0.0,95,0.00,,---,0.00,VWS V14.01,2013-03-25 00:25:00,
2013-03-24 20:30:00,32.0,30.7,29.67,NE,51,0.0,0.0,95,0.00,,---,0.00,VWS V14.01,2013-03-25 00:30:00,
2013-03-24 20:35:00,32.0,31.0,29.67,ENE,68,0.0,0.0,96,0.00,,---,0.00,VWS V14.01,2013-03-25 00:35:00,
2013-03-24 20:40:00,32.0,31.0,29.66,NE,49,0.0,0.0,96,0.00,,---,0.00,VWS V14.01,2013-03-25 00:40:00,
2013-03-24 20:45:00,31.9,30.9,29.66,ENE,69,0.0,0.0,96,0.00,,---,0.00,VWS V14.01,2013-03-25 00:45:00,
2013-03-24 20:50:00,31.9,30.9,29.66,ENE,78,0.0,0.0,96,0.00,,---,0.00,VWS V14.01,2013-03-25 00:50:00,
2013-03-24 20:55:00,31.9,30.9,29.66,NNE,33,0.0,0.0,96,0.00,,---,0.00,VWS V14.01,2013-03-25 00:55:00,
2013-03-24 21:00:00,31.9,30.9,29.67,East,84,0.0,0.0,96,0.00,,---,0.00,VWS V14.01,2013-03-25 01:00:00,
2013-03-24 21:05:00,31.9,30.9,29.68,ENE,63,0.0,0.0,96,0.00,,---,0.00,VWS V14.01,2013-03-25 01:05:00,
2013-03-24 21:10:00,31.9,30.9,29.68,ENE,57,0.0,0.0,96,0.00,,---,0.00,VWS V14.01,2013-03-25 01:10:00,
2013-03-24 21:15:00,31.9,30.9,29.68,NNW,336,0.0,0.0,96,0.00,,---,0.00,VWS V14.01,2013-03-25 01:15:00,
2013-03-24 21:20:00,31.9,30.9,29.68,NE,50,0.0,0.0,96,0.00,,---,0.00,VWS V14.01,2013-03-25 01:20:00,
2013-03-24 21:25:00,31.9,30.9,29.69,ENE,68,0.0,0.0,96,0.00,,---,0.00,VWS V14.01,2013-03-25 01:25:00,
2013-03-24 21:30:00,32.0,31.0,29.69,NW,305,0.0,0.0,96,0.00,,---,0.00,VWS V14.01,2013-03-25 01:30:00,
2013-03-24 21:35:00,32.0,31.0,29.69,NE,56,0.0,0.0,96,0.00,,---,0.00,VWS V14.01,2013-03-25 01:35:00,
2013-03-24 21:40:00,32.0,31.0,29.69,NE,53,0.0,0.0,96,0.00,,---,0.00,VWS V14.01,2013-03-25 01:40:00,
2013-03-24 21:46:00,32.1,31.1,29.70,ENE,58,0.0,0.0,96,0.00,,---,0.00,VWS V14.01,2013-03-25 01:46:00,
2013-03-24 21:50:00,32.1,31.1,29.69,NE,39,0.0,0.0,96,0.00,,---,0.00,VWS V14.01,2013-03-25 01:50:00,
2013-03-24 21:51:00,32.1,31.1,29.69,ENE,59,0.0,0.0,96,0.00,,---,0.00,VWS V14.01,2013-03-25 01:51:00,
2013-03-24 21:56:00,32.1,31.1,29.69,ENE,60,0.0,0.0,96,0.00,,---,0.00,VWS V14.01,2013-03-25 01:56:00,
2013-03-24 22:00:00,32.1,31.1,29.69,NE,56,0.0,0.0,96,0.00,,---,0.00,VWS V14.01,2013-03-25 02:00:00,
2013-03-24 22:01:00,32.1,31.1,29.69,ENE,68,0.0,0.0,96,0.00,,---,0.00,VWS V14.01,2013-03-25 02:01:00,
2013-03-24 22:06:00,32.1,31.1,29.68,NE,40,0.0,0.0,96,0.00,,---,0.00,VWS V14.01,2013-03-25 02:06:00,
2013-03-24 22:10:00,32.1,31.1,29.68,ENE,63,0.0,0.0,96,0.00,,---,0.00,VWS V14.01,2013-03-25 02:10:00,
2013-03-24 22:11:00,32.2,31.2,29.67,NE,53,0.0,0.0,96,0.00,,---,0.00,VWS V14.01,2013-03-25 02:11:00,
2013-03-24 22:17:00,32.1,31.1,29.66,ENE,71,0.0,0.0,96,0.00,,---,0.00,VWS V14.01,2013-03-25 02:17:00,
2013-03-24 22:20:00,32.1,31.1,29.66,ENE,65,0.0,0.0,96,0.00,,---,0.00,VWS V14.01,2013-03-25 02:20:00,
2013-03-24 22:22:00,32.1,31.1,29.67,NNE,23,0.0,0.0,96,0.00,,---,0.00,VWS V14.01,2013-03-25 02:22:00,
2013-03-24 22:27:00,32.1,31.1,29.67,ENE,75,0.0,0.0,96,0.00,,---,0.00,VWS V14.01,2013-03-25 02:27:00,
2013-03-24 22:30:00,32.1,31.1,29.67,East,90,0.0,0.0,96,0.00,,---,0.00,VWS V14.01,2013-03-25 02:30:00,
2013-03-24 22:32:00,32.1,31.1,29.67,ENE,59,0.0,0.0,96,0.00,,---,0.00,VWS V14.01,2013-03-25 02:32:00,
2013-03-24 22:37:00,32.1,31.1,29.67,NNE,19,0.0,0.0,96,0.00,,---,0.00,VWS V14.01,2013-03-25 02:37:00,
2013-03-24 22:40:00,32.1,31.1,29.67,NE,56,0.0,0.0,96,0.00,,---,0.00,VWS V14.01,2013-03-25 02:40:00,
2013-03-24 22:42:00,32.1,31.1,29.67,ENE,67,0.0,0.0,96,0.00,,---,0.00,VWS V14.01,2013-03-25 02:42:00,
2013-03-24 22:47:00,32.1,31.1,29.66,NNW,335,0.0,0.0,96,0.00,,---,0.00,VWS V14.01,2013-03-25 02:47:00,
2013-03-24 22:50:00,32.1,31.1,29.66,ENE,63,0.0,0.0,96,0.00,,---,0.00,VWS V14.01,2013-03-25 02:50:00,
2013-03-24 22:52:00,32.1,31.1,29.66,NE,43,0.0,0.0,96,0.00,,---,0.00,VWS V14.01,2013-03-25 02:52:00,
2013-03-24 22:57:00,32.1,31.1,29.66,NNE,25,0.0,0.0,96,0.00,,---,0.00,VWS V14.01,2013-03-25 02:57:00,
2013-03-24 23:00:00,32.1,31.1,29.65,North,11,0.0,0.0,96,0.00,,---,0.00,VWS V14.01,2013-03-25 03:00:00,
2013-03-24 23:02:00,32.1,31.1,29.65,ENE,74,0.0,0.0,96,0.00,,---,0.00,VWS V14.01,2013-03-25 03:02:00,
2013-03-24 23:07:00,32.1,31.1,29.65,NE,45,0.0,0.0,96,0.00,,---,0.00,VWS V14.01,2013-03-25 03:07:00,
2013-03-24 23:10:00,32.1,31.1,29.64,North,9,0.0,0.0,96,0.00,,---,0.00,VWS V14.01,2013-03-25 03:10:00,
2013-03-24 23:12:00,32.1,31.1,29.64,NE,46,0.0,0.0,96,0.00,,---,0.00,VWS V14.01,2013-03-25 03:12:00,
2013-03-24 23:17:00,32.1,31.1,29.64,ENE,60,0.0,0.0,96,0.00,,---,0.00,VWS V14.01,2013-03-25 03:17:00,
2013-03-24 23:20:00,32.1,31.1,29.64,NNE,16,0.0,0.0,96,0.00,,---,0.00,VWS V14.01,2013-03-25 03:20:00,
2013-03-24 23:22:00,32.1,31.1,29.64,ENE,64,0.0,0.0,96,0.00,,---,0.00,VWS V14.01,2013-03-25 03:22:00,
2013-03-24 23:27:00,32.1,31.1,29.65,ENE,63,0.0,0.0,96,0.00,,---,0.00,VWS V14.01,2013-03-25 03:27:00,
2013-03-24 23:30:00,32.1,31.1,29.65,East,79,0.0,0.0,96,0.00,,---,0.00,VWS V14.01,2013-03-25 03:30:00,
2013-03-24 23:32:00,32.1,31.1,29.65,East,79,0.0,0.0,96,0.00,,---,0.00,VWS V14.01,2013-03-25 03:32:00,
2013-03-24 23:37:00,32.0,31.0,29.65,SW,215,0.0,0.0,96,0.00,,---,0.00,VWS V14.01,2013-03-25 03:37:00,
2013-03-24 23:40:00,32.0,31.0,29.64,SW,215,0.0,0.0,96,0.00,,---,0.00,VWS V14.01,2013-03-25 03:40:00,
2013-03-24 23:43:00,32.1,31.1,29.64,ESE,113,0.0,0.0,96,0.00,,---,0.00,VWS V14.01,2013-03-25 03:43:00,
2013-03-24 23:47:00,32.1,31.1,29.64,ENE,75,0.0,0.0,96,0.00,,---,0.00,VWS V14.01,2013-03-25 03:47:00,
2013-03-24 23:50:00,32.1,31.1,29.64,ENE,69,0.0,0.0,96,0.00,,---,0.00,VWS V14.01,2013-03-25 03:50:00,
2013-03-24 23:53:00,32.1,31.1,29.64,East,79,0.0,0.0,96,0.00,,---,0.00,VWS V14.01,2013-03-25 03:53:00,
2013-03-24 23:58:00,32.1,31.1,29.64,NE,43,0.0,0.0,96,0.00,,---,0.00,VWS V14.01,2013-03-25 03:58:00,